sensor_id;sensor_type;location;lat;lon;timestamp;P1;durP1;ratioP1;P2;durP2;ratioP2
56667;SDS011;42542;48.360;10.958;2022-07-30T00:00:29;19.38;;;6.10;;
56667;SDS011;42542;48.360;10.958;2022-07-30T00:03:31;11.52;;;6.28;;
56667;SDS011;42542;48.360;10.958;2022-07-30T00:06:33;10.77;;;6.40;;
56667;SDS011;42542;48.360;10.958;2022-07-30T00:09:38;10.00;;;6.37;;
56667;SDS011;42542;48.360;10.958;2022-07-30T00:12:39;10.13;;;6.13;;
56667;SDS011;42542;48.360;10.958;2022-07-30T00:15:41;12.05;;;6.10;;
56667;SDS011;42542;48.360;10.958;2022-07-30T00:18:43;11.48;;;6.22;;
56667;SDS011;42542;48.360;10.958;2022-07-30T00:21:44;10.50;;;6.20;;
56667;SDS011;42542;48.360;10.958;2022-07-30T00:24:46;11.30;;;6.03;;
56667;SDS011;42542;48.360;10.958;2022-07-30T00:27:48;10.70;;;6.10;;
56667;SDS011;42542;48.360;10.958;2022-07-30T00:30:49;10.52;;;6.13;;
56667;SDS011;42542;48.360;10.958;2022-07-30T00:33:56;11.10;;;6.18;;
56667;SDS011;42542;48.360;10.958;2022-07-30T00:36:58;9.93;;;5.83;;
56667;SDS011;42542;48.360;10.958;2022-07-30T00:40:00;10.13;;;6.28;;
56667;SDS011;42542;48.360;10.958;2022-07-30T00:43:02;9.63;;;5.82;;
56667;SDS011;42542;48.360;10.958;2022-07-30T00:46:04;12.02;;;5.70;;
56667;SDS011;42542;48.360;10.958;2022-07-30T00:49:05;10.35;;;5.50;;
56667;SDS011;42542;48.360;10.958;2022-07-30T00:52:10;12.00;;;5.83;;
56667;SDS011;42542;48.360;10.958;2022-07-30T00:55:12;9.93;;;5.70;;
56667;SDS011;42542;48.360;10.958;2022-07-30T00:58:15;10.85;;;5.32;;
56667;SDS011;42542;48.360;10.958;2022-07-30T01:01:17;9.07;;;5.63;;
56667;SDS011;42542;48.360;10.958;2022-07-30T01:04:19;9.27;;;5.30;;
56667;SDS011;42542;48.360;10.958;2022-07-30T01:07:21;9.47;;;5.40;;
56667;SDS011;42542;48.360;10.958;2022-07-30T01:10:27;10.65;;;5.63;;
56667;SDS011;42542;48.360;10.958;2022-07-30T01:13:29;9.98;;;5.40;;
56667;SDS011;42542;48.360;10.958;2022-07-30T01:16:31;11.32;;;5.50;;
56667;SDS011;42542;48.360;10.958;2022-07-30T01:19:34;9.68;;;5.28;;
56667;SDS011;42542;48.360;10.958;2022-07-30T01:25:51;10.75;;;5.40;;
56667;SDS011;42542;48.360;10.958;2022-07-30T01:28:56;11.60;;;5.65;;
56667;SDS011;42542;48.360;10.958;2022-07-30T01:32:00;9.57;;;5.32;;
56667;SDS011;42542;48.360;10.958;2022-07-30T01:35:05;9.75;;;5.43;;
56667;SDS011;42542;48.360;10.958;2022-07-30T01:38:09;10.50;;;5.03;;
56667;SDS011;42542;48.360;10.958;2022-07-30T01:41:13;9.48;;;5.55;;
56667;SDS011;42542;48.360;10.958;2022-07-30T01:44:16;9.30;;;5.28;;
56667;SDS011;42542;48.360;10.958;2022-07-30T01:47:24;8.70;;;5.15;;
56667;SDS011;42542;48.360;10.958;2022-07-30T01:50:29;11.25;;;5.60;;
56667;SDS011;42542;48.360;10.958;2022-07-30T01:53:33;11.27;;;5.73;;
56667;SDS011;42542;48.360;10.958;2022-07-30T01:56:39;10.02;;;5.50;;
56667;SDS011;42542;48.360;10.958;2022-07-30T01:59:44;10.45;;;5.38;;
56667;SDS011;42542;48.360;10.958;2022-07-30T02:02:49;9.40;;;5.45;;
56667;SDS011;42542;48.360;10.958;2022-07-30T02:06:01;10.52;;;5.38;;
56667;SDS011;42542;48.360;10.958;2022-07-30T02:09:09;10.50;;;5.60;;
56667;SDS011;42542;48.360;10.958;2022-07-30T02:12:15;10.10;;;6.07;;
56667;SDS011;42542;48.360;10.958;2022-07-30T02:15:33;10.98;;;6.03;;
56667;SDS011;42542;48.360;10.958;2022-07-30T02:18:47;11.65;;;6.30;;
56667;SDS011;42542;48.360;10.958;2022-07-30T02:22:01;10.35;;;6.13;;
56667;SDS011;42542;48.360;10.958;2022-07-30T02:25:09;10.50;;;5.57;;
56667;SDS011;42542;48.360;10.958;2022-07-30T02:28:14;11.03;;;5.93;;
56667;SDS011;42542;48.360;10.958;2022-07-30T02:31:19;10.20;;;6.07;;
56667;SDS011;42542;48.360;10.958;2022-07-30T02:34:27;10.52;;;6.18;;
56667;SDS011;42542;48.360;10.958;2022-07-30T02:37:33;12.68;;;6.45;;
56667;SDS011;42542;48.360;10.958;2022-07-30T02:40:44;11.17;;;6.20;;
56667;SDS011;42542;48.360;10.958;2022-07-30T02:43:47;10.20;;;6.30;;
56667;SDS011;42542;48.360;10.958;2022-07-30T02:46:52;13.00;;;6.45;;
56667;SDS011;42542;48.360;10.958;2022-07-30T02:50:16;11.82;;;6.35;;
56667;SDS011;42542;48.360;10.958;2022-07-30T02:53:20;12.85;;;6.53;;
56667;SDS011;42542;48.360;10.958;2022-07-30T02:56:23;10.90;;;6.20;;
56667;SDS011;42542;48.360;10.958;2022-07-30T02:59:29;13.98;;;7.03;;
56667;SDS011;42542;48.360;10.958;2022-07-30T03:02:32;11.90;;;6.68;;
56667;SDS011;42542;48.360;10.958;2022-07-30T03:05:39;12.10;;;6.90;;
56667;SDS011;42542;48.360;10.958;2022-07-30T03:08:42;10.85;;;6.65;;
56667;SDS011;42542;48.360;10.958;2022-07-30T03:11:45;12.50;;;6.97;;
56667;SDS011;42542;48.360;10.958;2022-07-30T03:14:49;15.88;;;7.00;;
56667;SDS011;42542;48.360;10.958;2022-07-30T03:17:52;10.90;;;6.47;;
56667;SDS011;42542;48.360;10.958;2022-07-30T03:20:57;12.98;;;7.00;;
56667;SDS011;42542;48.360;10.958;2022-07-30T03:23:59;11.48;;;6.75;;
56667;SDS011;42542;48.360;10.958;2022-07-30T03:27:04;12.33;;;6.67;;
56667;SDS011;42542;48.360;10.958;2022-07-30T03:30:08;11.73;;;6.82;;
56667;SDS011;42542;48.360;10.958;2022-07-30T03:33:10;10.77;;;6.47;;
56667;SDS011;42542;48.360;10.958;2022-07-30T03:36:15;11.45;;;6.50;;
56667;SDS011;42542;48.360;10.958;2022-07-30T03:39:18;11.32;;;6.38;;
56667;SDS011;42542;48.360;10.958;2022-07-30T03:42:21;11.97;;;6.60;;
56667;SDS011;42542;48.360;10.958;2022-07-30T03:45:23;11.32;;;6.43;;
56667;SDS011;42542;48.360;10.958;2022-07-30T03:48:30;11.38;;;6.60;;
56667;SDS011;42542;48.360;10.958;2022-07-30T03:51:35;10.60;;;6.30;;
56667;SDS011;42542;48.360;10.958;2022-07-30T03:54:39;12.52;;;6.45;;
56667;SDS011;42542;48.360;10.958;2022-07-30T03:58:00;12.80;;;6.60;;
56667;SDS011;42542;48.360;10.958;2022-07-30T04:01:03;11.10;;;6.35;;
56667;SDS011;42542;48.360;10.958;2022-07-30T04:04:09;10.98;;;6.40;;
56667;SDS011;42542;48.360;10.958;2022-07-30T04:07:13;13.10;;;6.68;;
56667;SDS011;42542;48.360;10.958;2022-07-30T04:10:15;10.43;;;6.60;;
56667;SDS011;42542;48.360;10.958;2022-07-30T04:13:43;11.17;;;6.70;;
56667;SDS011;42542;48.360;10.958;2022-07-30T04:16:54;10.68;;;6.70;;
56667;SDS011;42542;48.360;10.958;2022-07-30T04:20:05;13.00;;;6.63;;
56667;SDS011;42542;48.360;10.958;2022-07-30T04:23:18;10.75;;;6.40;;
56667;SDS011;42542;48.360;10.958;2022-07-30T04:26:20;11.05;;;7.13;;
56667;SDS011;42542;48.360;10.958;2022-07-30T04:29:23;12.03;;;7.00;;
56667;SDS011;42542;48.360;10.958;2022-07-30T04:32:27;12.63;;;6.70;;
56667;SDS011;42542;48.360;10.958;2022-07-30T04:35:55;12.50;;;6.50;;
56667;SDS011;42542;48.360;10.958;2022-07-30T04:39:05;10.80;;;6.80;;
56667;SDS011;42542;48.360;10.958;2022-07-30T04:42:07;9.95;;;6.20;;
56667;SDS011;42542;48.360;10.958;2022-07-30T04:45:10;11.43;;;6.50;;
56667;SDS011;42542;48.360;10.958;2022-07-30T04:48:29;10.87;;;6.50;;
56667;SDS011;42542;48.360;10.958;2022-07-30T04:51:42;11.52;;;6.97;;
56667;SDS011;42542;48.360;10.958;2022-07-30T04:54:53;10.55;;;6.00;;
56667;SDS011;42542;48.360;10.958;2022-07-30T04:57:57;10.70;;;6.40;;
56667;SDS011;42542;48.360;10.958;2022-07-30T05:01:04;14.17;;;6.30;;
56667;SDS011;42542;48.360;10.958;2022-07-30T05:04:06;11.52;;;6.43;;
56667;SDS011;42542;48.360;10.958;2022-07-30T05:07:09;11.25;;;6.10;;
56667;SDS011;42542;48.360;10.958;2022-07-30T05:10:14;11.55;;;6.57;;
56667;SDS011;42542;48.360;10.958;2022-07-30T05:13:16;10.00;;;6.13;;
56667;SDS011;42542;48.360;10.958;2022-07-30T05:16:18;11.57;;;6.37;;
56667;SDS011;42542;48.360;10.958;2022-07-30T05:19:21;10.50;;;6.18;;
56667;SDS011;42542;48.360;10.958;2022-07-30T05:22:24;13.20;;;6.40;;
56667;SDS011;42542;48.360;10.958;2022-07-30T05:25:28;12.55;;;6.60;;
56667;SDS011;42542;48.360;10.958;2022-07-30T05:28:40;10.65;;;6.20;;
56667;SDS011;42542;48.360;10.958;2022-07-30T05:31:46;13.03;;;6.40;;
56667;SDS011;42542;48.360;10.958;2022-07-30T05:34:49;10.65;;;6.50;;
56667;SDS011;42542;48.360;10.958;2022-07-30T05:37:51;13.02;;;6.93;;
56667;SDS011;42542;48.360;10.958;2022-07-30T05:40:53;11.75;;;6.13;;
56667;SDS011;42542;48.360;10.958;2022-07-30T05:44:15;11.20;;;6.82;;
56667;SDS011;42542;48.360;10.958;2022-07-30T05:47:22;10.50;;;6.43;;
56667;SDS011;42542;48.360;10.958;2022-07-30T05:50:24;11.50;;;6.70;;
56667;SDS011;42542;48.360;10.958;2022-07-30T05:53:27;11.50;;;6.72;;
56667;SDS011;42542;48.360;10.958;2022-07-30T05:56:44;11.68;;;7.00;;
56667;SDS011;42542;48.360;10.958;2022-07-30T05:59:48;14.52;;;6.95;;
56667;SDS011;42542;48.360;10.958;2022-07-30T06:03:16;16.10;;;8.50;;
56667;SDS011;42542;48.360;10.958;2022-07-30T06:06:39;13.18;;;7.90;;
56667;SDS011;42542;48.360;10.958;2022-07-30T06:09:40;12.88;;;7.90;;
56667;SDS011;42542;48.360;10.958;2022-07-30T06:12:45;14.32;;;7.93;;
56667;SDS011;42542;48.360;10.958;2022-07-30T06:15:48;12.85;;;8.40;;
56667;SDS011;42542;48.360;10.958;2022-07-30T06:18:49;14.23;;;9.00;;
56667;SDS011;42542;48.360;10.958;2022-07-30T06:22:02;15.70;;;9.10;;
56667;SDS011;42542;48.360;10.958;2022-07-30T06:25:12;14.95;;;8.80;;
56667;SDS011;42542;48.360;10.958;2022-07-30T06:28:19;14.55;;;8.35;;
56667;SDS011;42542;48.360;10.958;2022-07-30T06:31:43;15.95;;;8.35;;
56667;SDS011;42542;48.360;10.958;2022-07-30T06:34:45;11.87;;;7.63;;
56667;SDS011;42542;48.360;10.958;2022-07-30T06:37:47;15.48;;;7.40;;
56667;SDS011;42542;48.360;10.958;2022-07-30T06:41:15;13.00;;;7.85;;
56667;SDS011;42542;48.360;10.958;2022-07-30T06:44:30;13.63;;;8.02;;
56667;SDS011;42542;48.360;10.958;2022-07-30T06:47:57;13.43;;;7.93;;
56667;SDS011;42542;48.360;10.958;2022-07-30T06:51:05;13.33;;;8.00;;
56667;SDS011;42542;48.360;10.958;2022-07-30T06:54:07;11.73;;;8.00;;
56667;SDS011;42542;48.360;10.958;2022-07-30T06:57:09;13.32;;;8.20;;
56667;SDS011;42542;48.360;10.958;2022-07-30T07:00:10;13.60;;;8.77;;
56667;SDS011;42542;48.360;10.958;2022-07-30T07:03:15;16.50;;;8.48;;
56667;SDS011;42542;48.360;10.958;2022-07-30T07:06:17;14.03;;;8.10;;
56667;SDS011;42542;48.360;10.958;2022-07-30T07:09:19;13.20;;;8.10;;
56667;SDS011;42542;48.360;10.958;2022-07-30T07:12:31;14.23;;;8.50;;
56667;SDS011;42542;48.360;10.958;2022-07-30T07:15:33;13.52;;;7.78;;
56667;SDS011;42542;48.360;10.958;2022-07-30T07:18:39;15.05;;;8.07;;
56667;SDS011;42542;48.360;10.958;2022-07-30T07:21:41;11.73;;;7.77;;
56667;SDS011;42542;48.360;10.958;2022-07-30T07:24:43;12.60;;;8.03;;
56667;SDS011;42542;48.360;10.958;2022-07-30T07:27:49;14.52;;;8.32;;
56667;SDS011;42542;48.360;10.958;2022-07-30T07:31:11;12.98;;;7.60;;
56667;SDS011;42542;48.360;10.958;2022-07-30T07:34:33;14.32;;;7.88;;
56667;SDS011;42542;48.360;10.958;2022-07-30T07:37:34;12.23;;;7.90;;
56667;SDS011;42542;48.360;10.958;2022-07-30T07:40:37;14.63;;;7.83;;
56667;SDS011;42542;48.360;10.958;2022-07-30T07:43:39;14.07;;;7.45;;
56667;SDS011;42542;48.360;10.958;2022-07-30T07:46:45;13.88;;;7.80;;
56667;SDS011;42542;48.360;10.958;2022-07-30T07:49:47;10.88;;;7.20;;
56667;SDS011;42542;48.360;10.958;2022-07-30T07:52:49;13.67;;;7.73;;
56667;SDS011;42542;48.360;10.958;2022-07-30T07:55:51;12.90;;;7.70;;
56667;SDS011;42542;48.360;10.958;2022-07-30T07:58:55;14.27;;;7.10;;
56667;SDS011;42542;48.360;10.958;2022-07-30T08:01:58;13.05;;;7.25;;
56667;SDS011;42542;48.360;10.958;2022-07-30T08:05:23;12.15;;;7.07;;
56667;SDS011;42542;48.360;10.958;2022-07-30T08:09:12;12.63;;;6.80;;
56667;SDS011;42542;48.360;10.958;2022-07-30T08:12:37;12.93;;;7.07;;
56667;SDS011;42542;48.360;10.958;2022-07-30T08:15:57;11.05;;;7.10;;
56667;SDS011;42542;48.360;10.958;2022-07-30T08:19:26;11.43;;;6.88;;
56667;SDS011;42542;48.360;10.958;2022-07-30T08:22:41;12.15;;;6.28;;
56667;SDS011;42542;48.360;10.958;2022-07-30T08:25:43;11.90;;;6.10;;
56667;SDS011;42542;48.360;10.958;2022-07-30T08:28:45;10.47;;;6.10;;
56667;SDS011;42542;48.360;10.958;2022-07-30T08:31:46;10.65;;;5.80;;
56667;SDS011;42542;48.360;10.958;2022-07-30T08:34:48;13.38;;;6.40;;
56667;SDS011;42542;48.360;10.958;2022-07-30T08:37:50;9.40;;;5.72;;
56667;SDS011;42542;48.360;10.958;2022-07-30T08:40:54;12.40;;;6.07;;
56667;SDS011;42542;48.360;10.958;2022-07-30T08:43:57;10.73;;;6.70;;
56667;SDS011;42542;48.360;10.958;2022-07-30T08:47:01;12.95;;;6.75;;
56667;SDS011;42542;48.360;10.958;2022-07-30T08:50:25;9.43;;;6.10;;
56667;SDS011;42542;48.360;10.958;2022-07-30T08:53:45;13.13;;;5.63;;
56667;SDS011;42542;48.360;10.958;2022-07-30T08:56:48;10.83;;;5.70;;
56667;SDS011;42542;48.360;10.958;2022-07-30T08:59:50;10.07;;;5.60;;
56667;SDS011;42542;48.360;10.958;2022-07-30T09:03:01;10.05;;;5.60;;
56667;SDS011;42542;48.360;10.958;2022-07-30T09:06:04;10.30;;;5.43;;
56667;SDS011;42542;48.360;10.958;2022-07-30T09:09:07;11.85;;;5.60;;
56667;SDS011;42542;48.360;10.958;2022-07-30T09:15:37;12.17;;;5.90;;
56667;SDS011;42542;48.360;10.958;2022-07-30T09:18:40;12.10;;;5.68;;
56667;SDS011;42542;48.360;10.958;2022-07-30T09:21:55;9.70;;;5.50;;
56667;SDS011;42542;48.360;10.958;2022-07-30T09:25:37;13.57;;;5.00;;
56667;SDS011;42542;48.360;10.958;2022-07-30T09:29:16;8.87;;;5.00;;
56667;SDS011;42542;48.360;10.958;2022-07-30T09:32:47;8.40;;;4.73;;
56667;SDS011;42542;48.360;10.958;2022-07-30T09:36:15;11.35;;;4.55;;
56667;SDS011;42542;48.360;10.958;2022-07-30T09:39:41;9.10;;;4.10;;
56667;SDS011;42542;48.360;10.958;2022-07-30T09:43:22;7.90;;;3.97;;
56667;SDS011;42542;48.360;10.958;2022-07-30T09:46:44;7.73;;;3.70;;
56667;SDS011;42542;48.360;10.958;2022-07-30T09:50:04;9.00;;;4.13;;
56667;SDS011;42542;48.360;10.958;2022-07-30T09:53:13;8.30;;;3.90;;
56667;SDS011;42542;48.360;10.958;2022-07-30T09:56:23;6.20;;;3.33;;
56667;SDS011;42542;48.360;10.958;2022-07-30T09:59:33;10.40;;;3.60;;
56667;SDS011;42542;48.360;10.958;2022-07-30T10:02:38;9.00;;;4.00;;
56667;SDS011;42542;48.360;10.958;2022-07-30T10:06:01;7.03;;;3.60;;
56667;SDS011;42542;48.360;10.958;2022-07-30T10:09:23;7.80;;;3.58;;
56667;SDS011;42542;48.360;10.958;2022-07-30T10:12:32;7.35;;;3.58;;
56667;SDS011;42542;48.360;10.958;2022-07-30T10:15:43;8.35;;;3.90;;
56667;SDS011;42542;48.360;10.958;2022-07-30T10:18:50;7.37;;;3.40;;
56667;SDS011;42542;48.360;10.958;2022-07-30T10:22:18;7.00;;;3.57;;
56667;SDS011;42542;48.360;10.958;2022-07-30T10:25:32;7.55;;;3.45;;
56667;SDS011;42542;48.360;10.958;2022-07-30T10:29:00;7.88;;;3.40;;
56667;SDS011;42542;48.360;10.958;2022-07-30T10:32:05;6.15;;;2.90;;
56667;SDS011;42542;48.360;10.958;2022-07-30T10:35:09;6.60;;;3.07;;
56667;SDS011;42542;48.360;10.958;2022-07-30T10:38:33;8.33;;;3.70;;
56667;SDS011;42542;48.360;10.958;2022-07-30T10:45:17;6.88;;;3.15;;
56667;SDS011;42542;48.360;10.958;2022-07-30T10:48:20;10.07;;;3.25;;
56667;SDS011;42542;48.360;10.958;2022-07-30T10:51:45;6.37;;;2.90;;
56667;SDS011;42542;48.360;10.958;2022-07-30T10:54:52;5.40;;;2.60;;
56667;SDS011;42542;48.360;10.958;2022-07-30T10:58:05;5.68;;;2.70;;
56667;SDS011;42542;48.360;10.958;2022-07-30T11:01:09;6.85;;;2.50;;
56667;SDS011;42542;48.360;10.958;2022-07-30T11:04:19;7.72;;;3.20;;
56667;SDS011;42542;48.360;10.958;2022-07-30T11:07:32;11.13;;;3.40;;
56667;SDS011;42542;48.360;10.958;2022-07-30T11:13:51;7.93;;;3.33;;
56667;SDS011;42542;48.360;10.958;2022-07-30T11:16:57;6.28;;;2.90;;
56667;SDS011;42542;48.360;10.958;2022-07-30T11:29:41;6.68;;;3.60;;
56667;SDS011;42542;48.360;10.958;2022-07-30T11:32:54;7.05;;;3.85;;
56667;SDS011;42542;48.360;10.958;2022-07-30T11:36:07;7.80;;;3.50;;
56667;SDS011;42542;48.360;10.958;2022-07-30T11:39:12;7.00;;;3.50;;
56667;SDS011;42542;48.360;10.958;2022-07-30T11:42:33;6.40;;;3.13;;
56667;SDS011;42542;48.360;10.958;2022-07-30T11:45:36;6.60;;;3.25;;
56667;SDS011;42542;48.360;10.958;2022-07-30T11:48:39;6.78;;;3.17;;
56667;SDS011;42542;48.360;10.958;2022-07-30T11:51:46;7.47;;;3.55;;
56667;SDS011;42542;48.360;10.958;2022-07-30T11:54:52;7.97;;;3.47;;
56667;SDS011;42542;48.360;10.958;2022-07-30T11:57:55;6.03;;;3.37;;
56667;SDS011;42542;48.360;10.958;2022-07-30T12:00:59;6.00;;;3.28;;
56667;SDS011;42542;48.360;10.958;2022-07-30T12:04:09;8.20;;;3.42;;
56667;SDS011;42542;48.360;10.958;2022-07-30T12:07:12;5.75;;;3.20;;
56667;SDS011;42542;48.360;10.958;2022-07-30T12:10:14;6.50;;;3.37;;
56667;SDS011;42542;48.360;10.958;2022-07-30T12:13:27;7.10;;;3.50;;
56667;SDS011;42542;48.360;10.958;2022-07-30T12:16:49;6.55;;;3.47;;
56667;SDS011;42542;48.360;10.958;2022-07-30T12:19:53;6.25;;;3.65;;
56667;SDS011;42542;48.360;10.958;2022-07-30T12:22:55;6.82;;;3.28;;
56667;SDS011;42542;48.360;10.958;2022-07-30T12:25:57;5.83;;;3.30;;
56667;SDS011;42542;48.360;10.958;2022-07-30T12:29:00;6.23;;;3.50;;
56667;SDS011;42542;48.360;10.958;2022-07-30T12:32:05;8.23;;;3.55;;
56667;SDS011;42542;48.360;10.958;2022-07-30T12:35:07;7.18;;;3.22;;
56667;SDS011;42542;48.360;10.958;2022-07-30T12:38:09;8.10;;;3.33;;
56667;SDS011;42542;48.360;10.958;2022-07-30T12:41:11;6.10;;;3.40;;
56667;SDS011;42542;48.360;10.958;2022-07-30T12:47:40;7.35;;;3.30;;
56667;SDS011;42542;48.360;10.958;2022-07-30T12:50:43;7.05;;;3.22;;
56667;SDS011;42542;48.360;10.958;2022-07-30T12:53:45;5.93;;;3.38;;
56667;SDS011;42542;48.360;10.958;2022-07-30T13:00:04;7.80;;;3.63;;
56667;SDS011;42542;48.360;10.958;2022-07-30T13:03:18;7.75;;;3.60;;
56667;SDS011;42542;48.360;10.958;2022-07-30T13:06:29;8.40;;;3.60;;
56667;SDS011;42542;48.360;10.958;2022-07-30T13:09:31;6.95;;;3.45;;
56667;SDS011;42542;48.360;10.958;2022-07-30T13:12:33;6.03;;;3.53;;
56667;SDS011;42542;48.360;10.958;2022-07-30T13:15:34;5.93;;;3.47;;
56667;SDS011;42542;48.360;10.958;2022-07-30T13:18:37;7.82;;;3.60;;
56667;SDS011;42542;48.360;10.958;2022-07-30T13:21:39;7.22;;;3.33;;
56667;SDS011;42542;48.360;10.958;2022-07-30T13:25:13;6.70;;;3.20;;
56667;SDS011;42542;48.360;10.958;2022-07-30T13:29:18;8.20;;;3.30;;
56667;SDS011;42542;48.360;10.958;2022-07-30T13:32:19;6.37;;;3.30;;
56667;SDS011;42542;48.360;10.958;2022-07-30T13:35:21;7.00;;;3.15;;
56667;SDS011;42542;48.360;10.958;2022-07-30T13:38:22;6.32;;;3.25;;
56667;SDS011;42542;48.360;10.958;2022-07-30T13:41:24;8.50;;;3.40;;
56667;SDS011;42542;48.360;10.958;2022-07-30T13:44:26;6.37;;;3.40;;
56667;SDS011;42542;48.360;10.958;2022-07-30T13:47:27;8.37;;;3.50;;
56667;SDS011;42542;48.360;10.958;2022-07-30T13:50:29;6.70;;;3.53;;
56667;SDS011;42542;48.360;10.958;2022-07-30T13:53:31;5.80;;;3.00;;
56667;SDS011;42542;48.360;10.958;2022-07-30T13:56:33;6.72;;;2.97;;
56667;SDS011;42542;48.360;10.958;2022-07-30T13:59:41;5.70;;;3.07;;
56667;SDS011;42542;48.360;10.958;2022-07-30T14:02:42;6.63;;;3.00;;
56667;SDS011;42542;48.360;10.958;2022-07-30T14:05:44;6.75;;;2.90;;
56667;SDS011;42542;48.360;10.958;2022-07-30T14:08:46;7.57;;;2.78;;
56667;SDS011;42542;48.360;10.958;2022-07-30T14:11:47;6.60;;;2.70;;
56667;SDS011;42542;48.360;10.958;2022-07-30T14:14:49;6.17;;;2.60;;
56667;SDS011;42542;48.360;10.958;2022-07-30T14:17:50;6.07;;;3.07;;
56667;SDS011;42542;48.360;10.958;2022-07-30T14:20:56;5.90;;;2.72;;
56667;SDS011;42542;48.360;10.958;2022-07-30T14:23:58;7.38;;;2.80;;
56667;SDS011;42542;48.360;10.958;2022-07-30T14:27:00;6.38;;;2.50;;
56667;SDS011;42542;48.360;10.958;2022-07-30T14:30:02;5.10;;;2.60;;
56667;SDS011;42542;48.360;10.958;2022-07-30T14:33:06;5.70;;;2.40;;
56667;SDS011;42542;48.360;10.958;2022-07-30T14:36:08;5.03;;;2.53;;
56667;SDS011;42542;48.360;10.958;2022-07-30T14:39:10;5.65;;;2.60;;
56667;SDS011;42542;48.360;10.958;2022-07-30T14:42:11;5.50;;;2.53;;
56667;SDS011;42542;48.360;10.958;2022-07-30T14:45:13;5.43;;;2.70;;
56667;SDS011;42542;48.360;10.958;2022-07-30T14:48:15;5.40;;;2.50;;
56667;SDS011;42542;48.360;10.958;2022-07-30T14:51:17;7.13;;;2.70;;
56667;SDS011;42542;48.360;10.958;2022-07-30T14:54:26;5.53;;;2.50;;
56667;SDS011;42542;48.360;10.958;2022-07-30T14:57:28;6.72;;;2.50;;
56667;SDS011;42542;48.360;10.958;2022-07-30T15:00:29;6.40;;;2.67;;
56667;SDS011;42542;48.360;10.958;2022-07-30T15:03:49;5.97;;;2.67;;
56667;SDS011;42542;48.360;10.958;2022-07-30T15:06:50;5.78;;;2.70;;
56667;SDS011;42542;48.360;10.958;2022-07-30T15:09:52;6.03;;;2.70;;
56667;SDS011;42542;48.360;10.958;2022-07-30T15:12:54;5.18;;;2.40;;
56667;SDS011;42542;48.360;10.958;2022-07-30T15:15:55;5.17;;;2.50;;
56667;SDS011;42542;48.360;10.958;2022-07-30T15:18:57;5.67;;;2.50;;
56667;SDS011;42542;48.360;10.958;2022-07-30T15:21:59;5.65;;;2.60;;
56667;SDS011;42542;48.360;10.958;2022-07-30T15:25:03;5.32;;;2.60;;
56667;SDS011;42542;48.360;10.958;2022-07-30T15:28:09;7.28;;;2.40;;
56667;SDS011;42542;48.360;10.958;2022-07-30T15:31:11;6.00;;;2.70;;
56667;SDS011;42542;48.360;10.958;2022-07-30T15:34:12;6.70;;;2.60;;
56667;SDS011;42542;48.360;10.958;2022-07-30T15:37:14;7.03;;;2.40;;
56667;SDS011;42542;48.360;10.958;2022-07-30T15:40:16;6.05;;;2.50;;
56667;SDS011;42542;48.360;10.958;2022-07-30T15:43:19;5.90;;;2.60;;
56667;SDS011;42542;48.360;10.958;2022-07-30T15:46:20;8.00;;;2.93;;
56667;SDS011;42542;48.360;10.958;2022-07-30T15:49:22;7.27;;;2.70;;
56667;SDS011;42542;48.360;10.958;2022-07-30T15:52:24;7.22;;;2.50;;
56667;SDS011;42542;48.360;10.958;2022-07-30T15:55:26;6.75;;;2.60;;
56667;SDS011;42542;48.360;10.958;2022-07-30T15:58:27;6.03;;;2.40;;
56667;SDS011;42542;48.360;10.958;2022-07-30T16:01:30;5.17;;;2.50;;
56667;SDS011;42542;48.360;10.958;2022-07-30T16:04:33;5.40;;;2.40;;
56667;SDS011;42542;48.360;10.958;2022-07-30T16:07:34;6.07;;;2.63;;
56667;SDS011;42542;48.360;10.958;2022-07-30T16:10:36;5.63;;;2.55;;
56667;SDS011;42542;48.360;10.958;2022-07-30T16:13:38;5.82;;;2.60;;
56667;SDS011;42542;48.360;10.958;2022-07-30T16:16:39;6.40;;;2.50;;
56667;SDS011;42542;48.360;10.958;2022-07-30T16:19:41;5.97;;;2.80;;
56667;SDS011;42542;48.360;10.958;2022-07-30T16:22:45;7.45;;;2.70;;
56667;SDS011;42542;48.360;10.958;2022-07-30T16:25:47;6.22;;;2.70;;
56667;SDS011;42542;48.360;10.958;2022-07-30T16:28:49;7.47;;;2.53;;
56667;SDS011;42542;48.360;10.958;2022-07-30T16:31:51;5.80;;;2.80;;
56667;SDS011;42542;48.360;10.958;2022-07-30T16:34:53;5.53;;;2.40;;
56667;SDS011;42542;48.360;10.958;2022-07-30T16:37:54;5.40;;;2.50;;
56667;SDS011;42542;48.360;10.958;2022-07-30T16:40:58;5.85;;;2.40;;
56667;SDS011;42542;48.360;10.958;2022-07-30T16:43:59;6.30;;;2.90;;
56667;SDS011;42542;48.360;10.958;2022-07-30T16:47:01;7.53;;;2.70;;
56667;SDS011;42542;48.360;10.958;2022-07-30T16:50:03;6.33;;;2.70;;
56667;SDS011;42542;48.360;10.958;2022-07-30T16:53:06;7.20;;;2.80;;
56667;SDS011;42542;48.360;10.958;2022-07-30T16:56:14;5.82;;;2.70;;
56667;SDS011;42542;48.360;10.958;2022-07-30T16:59:16;6.55;;;2.80;;
56667;SDS011;42542;48.360;10.958;2022-07-30T17:02:21;5.90;;;2.80;;
56667;SDS011;42542;48.360;10.958;2022-07-30T17:05:22;6.03;;;2.80;;
56667;SDS011;42542;48.360;10.958;2022-07-30T17:08:24;5.65;;;2.78;;
56667;SDS011;42542;48.360;10.958;2022-07-30T17:11:27;6.85;;;2.70;;
56667;SDS011;42542;48.360;10.958;2022-07-30T17:14:48;5.60;;;2.70;;
56667;SDS011;42542;48.360;10.958;2022-07-30T17:17:49;5.83;;;2.70;;
56667;SDS011;42542;48.360;10.958;2022-07-30T17:20:52;5.90;;;2.70;;
56667;SDS011;42542;48.360;10.958;2022-07-30T17:23:53;5.80;;;2.80;;
56667;SDS011;42542;48.360;10.958;2022-07-30T17:26:55;6.20;;;2.75;;
56667;SDS011;42542;48.360;10.958;2022-07-30T17:30:00;6.40;;;2.65;;
56667;SDS011;42542;48.360;10.958;2022-07-30T17:33:03;6.30;;;2.97;;
56667;SDS011;42542;48.360;10.958;2022-07-30T17:36:06;6.40;;;2.83;;
56667;SDS011;42542;48.360;10.958;2022-07-30T17:39:08;5.78;;;2.70;;
56667;SDS011;42542;48.360;10.958;2022-07-30T17:42:30;7.80;;;2.90;;
56667;SDS011;42542;48.360;10.958;2022-07-30T17:45:32;7.13;;;3.10;;
56667;SDS011;42542;48.360;10.958;2022-07-30T17:48:35;5.97;;;3.30;;
56667;SDS011;42542;48.360;10.958;2022-07-30T17:51:37;8.83;;;3.53;;
56667;SDS011;42542;48.360;10.958;2022-07-30T17:54:40;7.20;;;3.67;;
56667;SDS011;42542;48.360;10.958;2022-07-30T17:57:41;7.35;;;3.38;;
56667;SDS011;42542;48.360;10.958;2022-07-30T18:00:43;6.45;;;3.35;;
56667;SDS011;42542;48.360;10.958;2022-07-30T18:03:44;7.70;;;3.70;;
56667;SDS011;42542;48.360;10.958;2022-07-30T18:06:46;9.03;;;3.53;;
56667;SDS011;42542;48.360;10.958;2022-07-30T18:09:49;7.20;;;3.67;;
56667;SDS011;42542;48.360;10.958;2022-07-30T18:12:51;8.05;;;3.75;;
56667;SDS011;42542;48.360;10.958;2022-07-30T18:15:53;7.65;;;3.78;;
56667;SDS011;42542;48.360;10.958;2022-07-30T18:18:54;7.23;;;3.70;;
56667;SDS011;42542;48.360;10.958;2022-07-30T18:21:56;7.80;;;4.00;;
56667;SDS011;42542;48.360;10.958;2022-07-30T18:25:03;8.45;;;4.40;;
56667;SDS011;42542;48.360;10.958;2022-07-30T18:28:07;7.57;;;4.05;;
56667;SDS011;42542;48.360;10.958;2022-07-30T18:31:12;7.10;;;3.70;;
56667;SDS011;42542;48.360;10.958;2022-07-30T18:34:13;6.90;;;3.83;;
56667;SDS011;42542;48.360;10.958;2022-07-30T18:37:15;7.40;;;3.70;;
56667;SDS011;42542;48.360;10.958;2022-07-30T18:40:16;7.63;;;3.80;;
56667;SDS011;42542;48.360;10.958;2022-07-30T18:43:25;8.45;;;3.70;;
56667;SDS011;42542;48.360;10.958;2022-07-30T18:46:27;8.57;;;3.75;;
56667;SDS011;42542;48.360;10.958;2022-07-30T18:49:29;10.13;;;4.27;;